Аэропорт: Национальный аэропорт Минск. Минск

ICAO: UMMS

METAR:
2019-07-23 18:00:00
UMMS 231800Z 34004MPS 9999 BKN039 19/16 Q1014 R31R/CLRD// NOSIG
METAR:
2019-07-23 17:03:00
TAF UMMS 231703Z 2318/2418 32006MPS 8000 BKN010 TEMPO 2318/2320 34007G12MPS 1200 TSRA BKN003 BKN020CB TEMPO 2320/2406 0400 -SHRA FG BKN002 SCT020CB TEMPO 2406/2412 35007G12MPS 2100 -SHRA BKN004 BKN020CB